Bluffton, Iowa
Current Conditions -  °F | °C
As of 12:55 PM on Monday 20 Oct 2014 (Local Time) from KDEH Reporting Station
Clear Clear  
Wind Chill: 61°   Ceiling: Unl
Heat Index: 61°   Visibility: 10mi
Dew Point: 45°   Wind: 13mph
Humidity: 55%   Direction: 330°NNW
Pressure: 29.95"   Gusts: 18mph
Location:  43.3626°N, 91.8164°W
Report Text: KDEH 201755Z AUTO 33011G16KT 10SM CLR 16/07 A2995 RMK AO2
Loading
Personal Weather Stations






























Interactive Weather Map
Tropical Storm Tracking
New forecast layout! Learn more

10-Day Weather Forecast

Advertisements
Track Severe Weather on mobile